Time;durP1;ratioP1;P1;durP2;ratioP2;P2;SDS_P1;SDS_P2;PMS_P1;PMS_P2;Temp;Humidity;BMP_temperature;BMP_pressure;BME280_temperature;BME280_humidity;BME280_pressure;Samples;Min_cycle;Max_cycle;Signal;HPM_P1;HPM_P2
2024/02/08 00:01:02;;;;;;;11.30;1.90;;;2.90;99.90;;;;;;4944791;28;20042;-75
2024/02/08 00:03:28;;;;;;;9.70;1.92;;;2.90;99.90;;;;;;4977563;28;20031;-75
2024/02/08 00:05:54;;;;;;;11.10;3.33;;;2.90;99.90;;;;;;4956602;28;20032;-74
2024/02/08 00:08:21;;;;;;;13.68;4.25;;;2.90;99.90;;;;;;4975202;28;20054;-75
2024/02/08 00:10:47;;;;;;;18.65;4.88;;;2.90;99.90;;;;;;4927421;28;20035;-75
2024/02/08 00:13:13;;;;;;;13.82;4.63;;;2.90;99.90;;;;;;4927079;28;20063;-75
2024/02/08 00:15:41;;;;;;;11.52;3.83;;;2.90;99.90;;;;;;4944138;28;20725;-74
2024/02/08 00:18:08;;;;;;;11.57;4.25;;;2.90;99.90;;;;;;4944958;28;20046;-75
2024/02/08 00:20:34;;;;;;;12.77;4.60;;;2.90;99.90;;;;;;4928744;28;20572;-75
2024/02/08 00:23:00;;;;;;;9.63;4.10;;;2.90;99.90;;;;;;4945063;28;20050;-74
2024/02/08 00:25:27;;;;;;;14.25;4.93;;;2.90;99.90;;;;;;4928932;28;20054;-74
2024/02/08 00:27:53;;;;;;;12.35;3.85;;;2.90;99.90;;;;;;4959569;28;20058;-74
2024/02/08 00:30:20;;;;;;;12.20;2.97;;;2.90;99.90;;;;;;4960365;28;20032;-75
2024/02/08 00:32:48;;;;;;;12.00;2.90;;;2.90;99.90;;;;;;4949186;28;20039;-76
2024/02/08 00:35:19;;;;;;;10.82;2.35;;;2.90;99.90;;;;;;4950210;28;20046;-75
2024/02/08 00:37:48;;;;;;;10.20;1.88;;;2.90;99.90;;;;;;4935418;28;20031;-76
2024/02/08 00:40:19;;;;;;;13.27;2.05;;;2.90;99.90;;;;;;4952509;28;20047;-75
2024/02/08 00:42:46;;;;;;;6.75;2.33;;;2.90;99.90;;;;;;4968795;28;20046;-75
2024/02/08 00:45:16;;;;;;;10.00;2.75;;;2.90;99.90;;;;;;4953087;28;20039;-75
2024/02/08 00:47:42;;;;;;;9.20;2.00;;;2.90;99.90;;;;;;4967698;28;20046;-75
2024/02/08 00:50:09;;;;;;;7.35;1.65;;;2.90;99.90;;;;;;4967567;28;20031;-75
2024/02/08 00:52:35;;;;;;;6.85;1.40;;;2.90;99.90;;;;;;4947453;28;20095;-74
2024/02/08 00:55:02;;;;;;;8.43;1.52;;;3.00;99.90;;;;;;4947635;28;20040;-74
2024/02/08 00:57:29;;;;;;;6.20;1.83;;;3.00;99.90;;;;;;4930455;28;20039;-75
2024/02/08 00:59:56;;;;;;;8.57;1.70;;;3.00;99.90;;;;;;4997408;28;20044;-75
2024/02/08 01:02:22;;;;;;;8.77;1.52;;;3.00;99.90;;;;;;4965233;28;20596;-75
2024/02/08 01:04:49;;;;;;;9.57;1.80;;;3.00;99.90;;;;;;4946536;28;20099;-75
2024/02/08 01:07:16;;;;;;;6.72;2.03;;;3.10;99.90;;;;;;4947106;28;20047;-75
2024/02/08 01:09:42;;;;;;;12.82;2.40;;;3.10;99.90;;;;;;4931596;28;20545;-74
2024/02/08 01:12:09;;;;;;;5.47;1.42;;;3.10;99.90;;;;;;4949432;28;20042;-76
2024/02/08 01:14:37;;;;;;;17.58;1.77;;;3.10;99.90;;;;;;4933372;28;20039;-74
2024/02/08 01:17:06;;;;;;;10.52;2.38;;;3.10;99.90;;;;;;4946387;28;20725;-76
2024/02/08 01:19:33;;;;;;;9.02;1.25;;;3.00;99.90;;;;;;4948423;28;20040;-76
2024/02/08 01:22:00;;;;;;;8.48;1.25;;;3.00;99.90;;;;;;4949787;28;20487;-75
2024/02/08 01:24:28;;;;;;;11.25;1.20;;;3.00;99.90;;;;;;4948757;28;20046;-75
2024/02/08 01:26:56;;;;;;;9.77;1.73;;;3.00;99.90;;;;;;4963684;28;20394;-75
2024/02/08 01:29:24;;;;;;;7.70;1.33;;;3.00;99.90;;;;;;4963009;28;20047;-75
2024/02/08 01:31:52;;;;;;;7.65;1.50;;;3.00;99.90;;;;;;4948289;28;20043;-74
2024/02/08 01:34:23;;;;;;;9.18;1.88;;;3.00;99.90;;;;;;4946717;28;20039;-75
2024/02/08 01:36:53;;;;;;;6.18;1.10;;;3.10;99.90;;;;;;4960538;28;20042;-74
2024/02/08 01:39:23;;;;;;;5.07;1.15;;;3.10;99.90;;;;;;4980402;28;20043;-76
2024/02/08 01:41:50;;;;;;;8.85;1.38;;;3.20;99.90;;;;;;4978753;28;20577;-74
2024/02/08 01:44:17;;;;;;;5.93;1.27;;;3.20;99.90;;;;;;4962131;28;20047;-75
2024/02/08 01:46:44;;;;;;;7.43;1.17;;;3.10;99.90;;;;;;4960220;28;20475;-73
2024/02/08 01:49:23;;;;;;;6.90;0.90;;;3.20;99.90;;;;;;4932459;28;20031;-75
2024/02/08 01:51:59;;;;;;;6.75;1.20;;;3.20;99.90;;;;;;4962058;28;20039;-75
2024/02/08 01:54:28;;;;;;;5.75;1.35;;;3.20;99.90;;;;;;4943539;28;20035;-74
2024/02/08 01:56:58;;;;;;;7.65;1.25;;;3.20;99.90;;;;;;4961777;28;20042;-75
2024/02/08 01:59:27;;;;;;;7.75;1.45;;;3.20;99.90;;;;;;4961639;28;20151;-76
2024/02/08 02:01:56;;;;;;;9.15;1.27;;;3.20;99.90;;;;;;4930700;28;20438;-74
2024/02/08 02:04:23;;;;;;;7.68;1.50;;;3.20;99.90;;;;;;4930693;28;20039;-74
2024/02/08 02:06:50;;;;;;;9.18;1.23;;;3.20;99.90;;;;;;4929300;28;20042;-73
2024/02/08 02:09:24;;;;;;;5.07;1.25;;;3.20;99.90;;;;;;4961442;28;20043;-74
2024/02/08 02:11:56;;;;;;;9.63;1.17;;;3.10;99.90;;;;;;4945773;28;20475;-75
2024/02/08 02:14:29;;;;;;;7.25;0.90;;;3.10;99.90;;;;;;4946565;28;20034;-74
2024/02/08 02:17:15;;;;;;;8.35;1.10;;;3.10;99.90;;;;;;4963327;28;20038;-73
2024/02/08 02:19:42;;;;;;;6.32;1.30;;;3.10;99.90;;;;;;4948465;28;20469;-74
2024/02/08 02:22:13;;;;;;;7.28;1.00;;;3.10;99.90;;;;;;4963260;28;20036;-75
2024/02/08 02:24:40;;;;;;;8.85;1.50;;;3.10;99.90;;;;;;4948515;28;20386;-75
2024/02/08 02:27:09;;;;;;;7.18;1.42;;;3.10;99.90;;;;;;4962953;28;20036;-74
2024/02/08 02:29:38;;;;;;;9.20;1.10;;;3.10;99.90;;;;;;4979140;28;20039;-75
2024/02/08 02:32:11;;;;;;;5.93;0.70;;;3.10;99.90;;;;;;4946349;28;20592;-74
2024/02/08 02:34:41;;;;;;;6.68;1.10;;;3.20;99.90;;;;;;4961661;28;20042;-75
2024/02/08 02:37:08;;;;;;;9.02;1.13;;;3.20;99.90;;;;;;4930605;28;20039;-74
2024/02/08 02:39:34;;;;;;;10.05;1.50;;;3.20;99.90;;;;;;4947435;28;20035;-75
2024/02/08 02:42:01;;;;;;;7.22;1.15;;;3.20;99.90;;;;;;4930417;28;20042;-73
2024/02/08 02:44:27;;;;;;;7.05;1.35;;;3.20;99.90;;;;;;4978702;28;20039;-75
2024/02/08 02:47:05;;;;;;;7.63;1.30;;;3.20;99.90;;;;;;4962316;28;20050;-74
2024/02/08 02:49:36;;;;;;;9.48;1.30;;;3.30;99.90;;;;;;4933011;28;20039;-74
2024/02/08 02:52:07;;;;;;;12.07;1.83;;;3.20;99.90;;;;;;4947119;28;20050;-75
2024/02/08 02:54:35;;;;;;;7.90;1.58;;;3.30;99.90;;;;;;4929257;28;20610;-75
2024/02/08 02:57:03;;;;;;;8.90;1.42;;;3.30;99.90;;;;;;4960718;28;20035;-74
2024/02/08 02:59:30;;;;;;;6.80;1.67;;;3.30;99.90;;;;;;4948116;28;20039;-74
2024/02/08 03:01:56;;;;;;;8.30;1.40;;;3.30;99.90;;;;;;4961835;28;20599;-74
2024/02/08 03:04:23;;;;;;;12.38;1.88;;;3.40;99.90;;;;;;4946809;28;20486;-74
2024/02/08 03:06:53;;;;;;;10.23;1.55;;;3.40;99.90;;;;;;4961245;28;20027;-75
2024/02/08 03:09:23;;;;;;;8.77;1.40;;;3.40;99.90;;;;;;4961190;28;20474;-75
2024/02/08 03:11:50;;;;;;;8.32;1.80;;;3.40;99.90;;;;;;4945570;28;20039;-75
2024/02/08 03:14:19;;;;;;;7.78;1.02;;;3.40;99.90;;;;;;4960685;28;20402;-74
2024/02/08 03:16:45;;;;;;;4.88;1.00;;;3.40;99.90;;;;;;4961769;28;20775;-74
2024/02/08 03:19:13;;;;;;;12.00;1.50;;;3.40;99.90;;;;;;4962209;28;20043;-74
2024/02/08 03:21:45;;;;;;;7.60;1.27;;;3.40;99.90;;;;;;4931401;28;20023;-75
2024/02/08 03:24:12;;;;;;;8.60;1.20;;;3.40;99.90;;;;;;4946393;28;20039;-74
2024/02/08 03:26:45;;;;;;;7.65;1.40;;;3.40;99.90;;;;;;4977098;28;20050;-74
2024/02/08 03:29:11;;;;;;;11.10;1.35;;;3.40;99.90;;;;;;4962461;28;20043;-74
2024/02/08 03:31:45;;;;;;;9.07;2.00;;;3.50;99.90;;;;;;4930736;28;20582;-75
2024/02/08 03:34:19;;;;;;;9.10;1.58;;;3.40;99.90;;;;;;4944960;28;20035;-74
2024/02/08 03:36:46;;;;;;;7.97;1.52;;;3.50;99.90;;;;;;4945526;28;20028;-75
2024/02/08 03:39:25;;;;;;;7.20;1.52;;;3.50;99.90;;;;;;4961716;28;20046;-75
2024/02/08 03:42:01;;;;;;;8.50;1.57;;;3.50;99.90;;;;;;4962027;28;22302;-74
2024/02/08 03:44:30;;;;;;;7.90;1.40;;;3.40;99.90;;;;;;4961571;28;20612;-74
2024/02/08 03:47:04;;;;;;;10.75;1.80;;;3.40;99.90;;;;;;4943807;28;20050;-75
2024/02/08 03:49:32;;;;;;;7.72;1.52;;;3.40;99.90;;;;;;4927393;28;20047;-73
2024/02/08 03:51:59;;;;;;;9.05;1.55;;;3.40;99.90;;;;;;4945447;28;20050;-74
2024/02/08 03:54:30;;;;;;;9.40;1.90;;;3.50;99.90;;;;;;4932927;28;20046;-75
2024/02/08 03:56:59;;;;;;;8.45;1.55;;;3.50;99.90;;;;;;4960974;28;20502;-75
2024/02/08 03:59:28;;;;;;;12.18;2.42;;;3.50;99.90;;;;;;4961890;28;20047;-74
2024/02/08 04:02:03;;;;;;;9.00;2.15;;;3.50;99.90;;;;;;4930014;28;20035;-75
2024/02/08 04:04:47;;;;;;;13.35;1.80;;;3.50;99.90;;;;;;4945930;28;20402;-75
2024/02/08 04:07:33;;;;;;;9.15;1.70;;;3.50;99.90;;;;;;4958719;28;20050;-75
2024/02/08 04:10:11;;;;;;;8.18;1.75;;;3.50;99.90;;;;;;4959943;28;20043;-74
2024/02/08 04:53:57;;;;;;;10.50;2.03;;;3.50;99.90;;;;;;4960610;28;20046;-75
2024/02/08 04:56:24;;;;;;;10.45;1.90;;;3.60;99.90;;;;;;4961359;28;21019;-74
2024/02/08 04:58:50;;;;;;;9.68;1.92;;;3.50;99.90;;;;;;4928728;28;20305;-76
2024/02/08 05:01:17;;;;;;;11.35;2.58;;;3.50;99.90;;;;;;4946275;28;20423;-76
2024/02/08 05:03:43;;;;;;;12.93;1.60;;;3.50;99.90;;;;;;4961299;28;20036;-75
2024/02/08 05:06:11;;;;;;;6.05;1.77;;;3.40;99.90;;;;;;4944667;28;20034;-75
2024/02/08 05:08:38;;;;;;;12.43;2.60;;;3.40;99.90;;;;;;4961170;28;20039;-76
2024/02/08 05:11:09;;;;;;;10.85;2.22;;;3.40;99.90;;;;;;4932016;28;20457;-74
2024/02/08 05:13:39;;;;;;;7.13;2.35;;;3.40;99.90;;;;;;4945428;28;20487;-75
2024/02/08 05:16:14;;;;;;;9.88;2.15;;;3.30;99.90;;;;;;4944616;28;20047;-74
2024/02/08 05:18:44;;;;;;;10.60;2.03;;;3.30;99.90;;;;;;4964872;28;20320;-76
2024/02/08 05:21:12;;;;;;;7.78;2.28;;;3.30;99.90;;;;;;4964840;28;21045;-74
2024/02/08 05:23:40;;;;;;;10.10;2.15;;;3.30;99.90;;;;;;4965128;28;20028;-74
2024/02/08 05:26:11;;;;;;;13.48;3.05;;;3.30;99.90;;;;;;4950032;28;20479;-75
2024/02/08 05:28:38;;;;;;;14.18;2.55;;;3.30;99.90;;;;;;4933735;28;20043;-74
2024/02/08 05:31:08;;;;;;;8.88;2.95;;;3.30;99.90;;;;;;4935409;28;20027;-75
2024/02/08 05:33:34;;;;;;;14.27;3.85;;;3.30;99.90;;;;;;4948236;28;20547;-76
2024/02/08 05:36:06;;;;;;;8.53;2.70;;;3.30;99.90;;;;;;4950594;28;20941;-75
2024/02/08 05:38:37;;;;;;;;;;;3.30;99.90;;;;;;4950829;28;20035;-74
2024/02/08 05:41:05;;;;;;;7.03;2.03;;;3.30;99.90;;;;;;4963526;28;20289;-75
2024/02/08 05:43:41;;;;;;;12.02;3.08;;;3.30;99.90;;;;;;4950001;28;20791;-75
2024/02/08 05:46:24;;;;;;;9.35;2.30;;;3.30;99.90;;;;;;4964710;28;20046;-74
2024/02/08 05:48:52;;;;;;;10.05;3.05;;;3.30;99.90;;;;;;4949105;28;20499;-74
2024/02/08 05:51:20;;;;;;;14.50;3.25;;;3.30;99.90;;;;;;4980957;28;20230;-74
2024/02/08 05:53:47;;;;;;;14.15;2.85;;;3.40;99.90;;;;;;4946059;28;20710;-75
2024/02/08 05:56:15;;;;;;;10.27;2.58;;;3.40;99.90;;;;;;4932151;29;20483;-74
2024/02/08 05:58:44;;;;;;;12.98;3.53;;;3.30;99.90;;;;;;4952041;28;20047;-75
2024/02/08 06:01:16;;;;;;;13.45;4.05;;;3.40;99.90;;;;;;4980005;28;20043;-74
2024/02/08 06:03:44;;;;;;;8.30;2.95;;;3.40;99.90;;;;;;4964519;28;20046;-75
2024/02/08 06:06:28;;;;;;;11.07;3.15;;;3.30;99.90;;;;;;4963629;28;20395;-75
2024/02/08 06:08:58;;;;;;;14.57;3.63;;;3.30;99.90;;;;;;4932338;28;20054;-74
2024/02/08 06:11:24;;;;;;;12.27;4.07;;;3.30;99.90;;;;;;4931516;28;20371;-75
2024/02/08 06:13:55;;;;;;;14.18;3.22;;;3.30;99.90;;;;;;4948970;28;20790;-75
2024/02/08 06:16:33;;;;;;;9.02;2.83;;;3.30;99.90;;;;;;4963806;28;20663;-76
2024/02/08 06:19:03;;;;;;;11.30;3.15;;;3.30;99.90;;;;;;4917737;29;20038;-74
2024/02/08 06:21:40;;;;;;;9.65;3.20;;;3.30;99.90;;;;;;4964137;28;20046;-75
2024/02/08 06:26:58;;;;;;;;;;;3.30;99.90;;;;;;4946950;28;20038;-75
2024/02/08 06:29:46;;;;;;;9.15;2.22;;;3.30;99.90;;;;;;4948530;28;19922;-74
2024/02/08 06:35:07;;;;;;;15.27;3.10;;;3.30;99.90;;;;;;4947932;28;20058;-75
2024/02/08 06:37:44;;;;;;;16.45;3.08;;;3.30;99.90;;;;;;4947987;28;20039;-75
2024/02/08 06:40:22;;;;;;;10.63;2.60;;;3.30;99.90;;;;;;4978525;28;20035;-75
2024/02/08 07:37:49;;;;;;;21.15;9.32;;;3.30;99.90;;;;;;4944592;28;20051;-75
2024/02/08 07:45:55;;;;;;;22.05;10.82;;;3.30;99.90;;;;;;4945609;28;20042;-75
2024/02/08 07:48:37;;;;;;;20.43;10.20;;;3.30;99.90;;;;;;4976524;28;20050;-76
2024/02/08 07:51:05;;;;;;;23.98;11.60;;;3.30;99.90;;;;;;4960830;28;20035;-75
2024/02/08 07:58:56;;;;;;;;;;;3.30;99.90;;;;;;4959912;28;20863;-75
2024/02/08 08:01:32;;;;;;;24.83;13.13;;;3.30;99.90;;;;;;4961384;28;19914;-75
2024/02/08 08:04:00;;;;;;;26.65;12.27;;;3.30;99.90;;;;;;4944712;28;20043;-75
2024/02/08 08:06:37;;;;;;;20.42;11.93;;;3.30;99.90;;;;;;4959833;28;20422;-75
2024/02/08 08:09:19;;;;;;;24.92;13.18;;;3.30;99.90;;;;;;4946558;28;20055;-74
2024/02/08 08:11:46;;;;;;;25.13;13.50;;;3.40;99.90;;;;;;4958280;28;20676;-76
2024/02/08 08:15:04;;;;;;;25.55;13.95;;;3.40;99.90;;;;;;4959134;28;20032;-75
2024/02/08 08:19:44;;;;;;;30.08;15.98;;;3.50;99.90;;;;;;4931788;28;20039;-75
2024/02/08 08:27:52;;;;;;;26.92;15.93;;;3.60;99.90;;;;;;4942758;28;20531;-76
2024/02/08 08:30:28;;;;;;;25.08;14.40;;;3.70;99.90;;;;;;4947504;28;20047;-75
2024/02/08 08:40:49;;;;;;;33.53;14.60;;;3.80;99.90;;;;;;4942606;28;20039;-75
2024/02/08 08:43:19;;;;;;;23.27;13.18;;;3.80;99.90;;;;;;4959523;28;20035;-75
2024/02/08 08:45:52;;;;;;;26.85;15.00;;;3.90;99.90;;;;;;4961426;28;20051;-76
2024/02/08 08:48:20;;;;;;;36.25;17.45;;;3.90;99.90;;;;;;4929247;28;20027;-75
2024/02/08 08:50:55;;;;;;;36.10;15.90;;;4.00;99.90;;;;;;4929235;28;20035;-76
2024/02/08 08:53:27;;;;;;;29.90;15.27;;;4.00;99.90;;;;;;4980345;28;20038;-75
2024/02/08 08:55:57;;;;;;;26.83;14.43;;;4.00;99.90;;;;;;4964366;28;20597;-78
2024/02/08 08:58:28;;;;;;;37.83;16.52;;;4.10;99.90;;;;;;4963687;28;20116;-76
2024/02/08 09:01:11;;;;;;;27.88;15.63;;;4.20;99.90;;;;;;4968906;28;20038;-75
2024/02/08 09:03:38;;;;;;;;;;;4.20;99.90;;;;;;4934954;28;20027;-75
2024/02/08 09:06:12;;;;;;;26.38;14.32;;;4.20;99.90;;;;;;4981208;28;19925;-76
2024/02/08 09:08:45;;;;;;;23.52;13.25;;;4.20;99.90;;;;;;4948000;28;20043;-78
2024/02/08 09:11:14;;;;;;;31.63;13.20;;;4.20;99.90;;;;;;4949384;28;20112;-75
2024/02/08 09:13:43;;;;;;;32.50;14.88;;;4.30;99.90;;;;;;4946969;28;20039;-77
2024/02/08 09:21:32;;;;;;;22.92;12.13;;;4.40;99.90;;;;;;4964269;28;20043;-74
2024/02/08 09:24:04;;;;;;;27.40;12.25;;;4.50;99.90;;;;;;4932712;28;20051;-74
2024/02/08 09:26:48;;;;;;;23.15;11.73;;;4.50;99.90;;;;;;4946756;28;20023;-77
2024/02/08 09:29:23;;;;;;;23.85;12.75;;;4.50;99.90;;;;;;4949479;28;20462;-79
2024/02/08 09:31:56;;;;;;;26.42;12.35;;;4.50;99.90;;;;;;4965366;28;20040;-76
2024/02/08 09:34:31;;;;;;;26.30;12.27;;;4.60;99.90;;;;;;4966261;28;20039;-75
2024/02/08 09:36:57;;;;;;;25.33;12.77;;;4.60;99.90;;;;;;4965454;28;20042;-79
2024/02/08 09:39:48;;;;;;;28.55;13.70;;;4.60;99.90;;;;;;4966697;28;20043;-79
2024/02/08 09:42:10;;;;;;;25.95;12.57;;;4.60;99.90;;;;;;4935836;28;21183;-78
2024/02/08 09:44:38;;;;;;;21.77;12.43;;;4.60;99.90;;;;;;4949034;28;20977;-81
2024/02/08 09:47:06;;;;;;;40.08;17.08;;;4.60;99.90;;;;;;4982374;28;20038;-76
2024/02/08 09:49:34;;;;;;;29.08;14.10;;;4.60;99.90;;;;;;4967246;28;20058;-76
2024/02/08 09:52:15;;;;;;;30.20;13.05;;;4.60;99.90;;;;;;4968307;28;20031;-77
2024/02/08 09:54:46;;;;;;;29.45;13.43;;;4.60;99.90;;;;;;4951067;28;20031;-76
2024/02/08 09:57:22;;;;;;;30.65;14.88;;;4.60;99.90;;;;;;4963824;28;20047;-78
2024/02/08 10:00:06;;;;;;;32.67;14.13;;;4.60;99.90;;;;;;4949713;28;20707;-78
2024/02/08 10:02:53;;;;;;;27.95;13.13;;;4.60;99.90;;;;;;4948781;28;20042;-75
2024/02/08 10:05:50;;;;;;;32.17;13.35;;;4.60;99.90;;;;;;4931703;28;20035;-74
2024/02/08 10:08:28;;;;;;;23.38;10.48;;;4.70;99.90;;;;;;4930701;28;20047;-75
2024/02/08 10:11:11;;;;;;;28.98;11.88;;;4.70;99.90;;;;;;4965163;28;20047;-76
2024/02/08 10:13:56;;;;;;;;;;;4.80;99.90;;;;;;4949341;28;20039;-77
2024/02/08 10:19:35;;;;;;;30.67;13.07;;;4.80;99.90;;;;;;4979887;28;20039;-76
2024/02/08 10:22:17;;;;;;;;;;;4.80;99.90;;;;;;4947963;28;20066;-74
2024/02/08 10:27:19;;;;;;;34.83;13.50;;;4.80;99.90;;;;;;4963789;28;20047;-77
2024/02/08 10:30:05;;;;;;;27.00;14.25;;;4.80;99.90;;;;;;4964681;28;20501;-75
2024/02/08 10:32:37;;;;;;;27.75;13.30;;;4.80;99.90;;;;;;4962811;28;20038;-78
2024/02/08 10:35:13;;;;;;;27.15;13.55;;;4.90;99.90;;;;;;4953479;28;20042;-75
2024/02/08 10:38:08;;;;;;;34.47;13.65;;;4.90;99.90;;;;;;4962209;28;20062;-77
2024/02/08 10:40:35;;;;;;;20.98;11.93;;;4.90;99.90;;;;;;4978693;28;20039;-79
2024/02/08 10:43:16;;;;;;;30.45;14.10;;;4.90;99.90;;;;;;4932786;28;20403;-79
2024/02/08 10:45:53;;;;;;;36.00;14.48;;;4.90;99.90;;;;;;4948938;28;20051;-80
2024/02/08 10:48:23;;;;;;;38.72;15.07;;;4.90;99.90;;;;;;4962918;28;20076;-80
2024/02/08 10:50:50;;;;;;;29.83;13.77;;;4.90;99.90;;;;;;4947540;28;20499;-75
2024/02/08 10:53:43;;;;;;;32.97;13.43;;;4.90;99.90;;;;;;4932074;28;20144;-78
2024/02/08 10:56:17;;;;;;;38.08;15.70;;;4.90;99.90;;;;;;4964739;28;20042;-76
2024/02/08 10:58:55;;;;;;;34.03;14.45;;;4.90;99.90;;;;;;4963486;28;20050;-79
2024/02/08 11:01:33;;;;;;;30.75;14.85;;;4.80;99.90;;;;;;4946995;28;20042;-80
2024/02/08 11:07:15;;;;;;;25.23;12.30;;;4.80;99.90;;;;;;4949522;28;20043;-79
2024/02/08 11:09:44;;;;;;;34.83;15.55;;;4.80;99.90;;;;;;4961634;28;20035;-75
2024/02/08 11:12:21;;;;;;;31.33;15.90;;;4.80;99.90;;;;;;4962839;28;20031;-79
2024/02/08 11:14:53;;;;;;;28.52;13.70;;;4.80;99.90;;;;;;4930945;28;20786;-79
2024/02/08 11:17:23;;;;;;;43.28;16.10;;;4.80;99.90;;;;;;4979882;28;20036;-80
2024/02/08 11:19:56;;;;;;;38.10;15.75;;;4.80;99.90;;;;;;4947865;28;20499;-81
2024/02/08 11:22:39;;;;;;;37.15;14.10;;;4.80;99.90;;;;;;4945789;28;20154;-80
2024/02/08 11:25:20;;;;;;;29.55;14.30;;;4.70;99.90;;;;;;4930305;28;20066;-82
2024/02/08 11:27:47;;;;;;;34.90;14.65;;;4.70;99.90;;;;;;4943834;28;20078;-79
2024/02/08 11:30:19;;;;;;;36.33;14.80;;;4.70;99.90;;;;;;4924808;28;20047;-78
2024/02/08 11:33:02;;;;;;;27.17;12.97;;;4.70;99.90;;;;;;4929195;28;20043;-79
2024/02/08 11:35:35;;;;;;;31.50;14.38;;;4.70;99.90;;;;;;4929475;28;20043;-78
2024/02/08 11:38:16;;;;;;;34.53;14.73;;;4.70;99.90;;;;;;4960459;28;20149;-77
2024/02/08 11:40:46;;;;;;;26.95;13.68;;;4.70;99.90;;;;;;4945719;28;20031;-79
2024/02/08 11:43:23;;;;;;;25.20;13.52;;;4.70;99.90;;;;;;4943702;28;20039;-79
2024/02/08 11:45:54;;;;;;;35.47;15.15;;;4.70;99.90;;;;;;4943936;28;20046;-78
2024/02/08 11:48:27;;;;;;;38.88;15.68;;;4.70;99.90;;;;;;4960051;28;20031;-79
2024/02/08 11:51:08;;;;;;;29.40;13.93;;;4.70;99.90;;;;;;4928401;28;20639;-79
2024/02/08 11:53:34;;;;;;;35.22;15.65;;;4.70;99.90;;;;;;4944420;28;20027;-78
2024/02/08 11:56:08;;;;;;;35.25;14.52;;;4.70;99.90;;;;;;4959156;28;20507;-79
2024/02/08 11:58:41;;;;;;;40.15;15.30;;;4.80;99.90;;;;;;4944052;28;20119;-78
2024/02/08 12:01:10;;;;;;;31.42;14.48;;;4.80;99.90;;;;;;4960320;28;20047;-78
2024/02/08 12:03:41;;;;;;;38.60;16.50;;;4.80;99.90;;;;;;4927101;28;20228;-79
2024/02/08 12:06:29;;;;;;;39.30;15.63;;;4.80;99.90;;;;;;4959069;28;20039;-80
2024/02/08 12:08:58;;;;;;;32.67;15.15;;;4.80;99.90;;;;;;4943040;28;22820;-79
2024/02/08 12:11:31;;;;;;;39.17;15.43;;;4.80;99.90;;;;;;4960183;28;20062;-80
2024/02/08 12:14:06;;;;;;;43.10;18.27;;;4.70;99.90;;;;;;4960577;28;20030;-79
2024/02/08 12:16:34;;;;;;;37.30;15.90;;;4.70;99.90;;;;;;4929755;28;20407;-80
2024/02/08 12:19:06;;;;;;;40.80;17.30;;;4.70;99.90;;;;;;4928961;28;20042;-77
2024/02/08 12:21:35;;;;;;;39.72;15.23;;;4.60;99.90;;;;;;4927952;28;20043;-79
2024/02/08 12:24:05;;;;;;;41.08;17.75;;;4.50;99.90;;;;;;4944577;28;20043;-80
2024/02/08 12:26:34;;;;;;;33.15;15.63;;;4.50;99.90;;;;;;4960872;28;20039;-80
2024/02/08 12:29:03;;;;;;;27.70;14.57;;;4.50;99.90;;;;;;4946435;28;20035;-79
2024/02/08 12:31:34;;;;;;;53.60;19.08;;;4.50;99.90;;;;;;4932868;28;20054;-82
2024/02/08 12:34:03;;;;;;;41.50;18.63;;;4.40;99.90;;;;;;4946056;28;20497;-81
2024/02/08 12:36:33;;;;;;;36.28;16.70;;;4.40;99.90;;;;;;4947720;28;20939;-81
2024/02/08 12:39:01;;;;;;;36.42;16.50;;;4.40;99.90;;;;;;4947712;28;20052;-80
2024/02/08 12:41:29;;;;;;;31.35;14.73;;;4.40;99.90;;;;;;4932365;28;20406;-82
2024/02/08 12:43:57;;;;;;;38.92;16.35;;;4.40;99.90;;;;;;4946627;28;21344;-79
2024/02/08 12:46:24;;;;;;;33.90;15.40;;;4.40;99.90;;;;;;4947169;28;20043;-80
2024/02/08 12:48:51;;;;;;;37.20;16.15;;;4.40;99.90;;;;;;4948409;28;20050;-80
2024/02/08 12:51:22;;;;;;;35.45;15.63;;;4.40;99.90;;;;;;4948181;28;20047;-80
2024/02/08 12:54:07;;;;;;;34.88;14.07;;;4.30;99.90;;;;;;4982360;28;20035;-82
2024/02/08 12:56:36;;;;;;;41.22;16.08;;;4.20;99.90;;;;;;4948289;28;20031;-78
2024/02/08 12:59:04;;;;;;;33.58;14.95;;;4.20;99.90;;;;;;4949192;28;20046;-77
2024/02/08 13:01:47;;;;;;;38.08;15.95;;;4.20;99.90;;;;;;4933620;29;20031;-81
2024/02/08 13:04:17;;;;;;;37.78;14.98;;;4.10;99.90;;;;;;4933680;28;20042;-79
2024/02/08 13:06:44;;;;;;;28.65;11.50;;;4.10;99.90;;;;;;4932352;28;20042;-79
2024/02/08 13:09:25;;;;;;;27.42;11.75;;;4.10;99.90;;;;;;4963732;28;20039;-79
2024/02/08 13:12:23;;;;;;;24.17;10.02;;;4.10;99.90;;;;;;4961232;28;20039;-80
2024/02/08 13:14:49;;;;;;;19.23;9.75;;;4.10;99.90;;;;;;4933433;28;20042;-78
2024/02/08 13:17:18;;;;;;;21.05;9.68;;;4.00;99.90;;;;;;4947542;28;20483;-80
2024/02/08 13:19:49;;;;;;;25.88;10.68;;;4.00;99.90;;;;;;4962228;28;20601;-79
2024/02/08 13:22:21;;;;;;;17.60;8.35;;;4.00;99.90;;;;;;4964142;28;20035;-84
2024/02/08 13:24:51;;;;;;;18.58;8.75;;;4.00;99.90;;;;;;4965765;28;20073;-82
2024/02/08 13:27:28;;;;;;;19.77;8.20;;;4.00;99.90;;;;;;4963931;28;20039;-81
2024/02/08 13:29:56;;;;;;;18.30;7.03;;;3.90;99.90;;;;;;4963935;28;20035;-81
2024/02/08 13:32:28;;;;;;;17.80;8.50;;;3.90;99.90;;;;;;4947512;28;20537;-82
2024/02/08 13:35:00;;;;;;;18.35;7.78;;;3.90;99.90;;;;;;4947328;28;20487;-81
2024/02/08 13:37:27;;;;;;;17.85;8.30;;;3.90;99.90;;;;;;4932043;28;20042;-81
2024/02/08 13:39:59;;;;;;;14.07;6.70;;;3.80;99.90;;;;;;4932824;28;20019;-77
2024/02/08 13:42:29;;;;;;;16.15;6.47;;;3.80;99.90;;;;;;4948351;28;20047;-79
2024/02/08 13:45:01;;;;;;;16.48;7.25;;;3.80;99.90;;;;;;4963716;28;20042;-82
2024/02/08 13:47:29;;;;;;;14.32;6.20;;;3.80;99.90;;;;;;4945875;28;20039;-83
2024/02/08 13:49:59;;;;;;;14.82;6.05;;;3.80;99.90;;;;;;4930920;28;20038;-78
2024/02/08 13:52:26;;;;;;;16.92;5.00;;;3.80;99.90;;;;;;4963677;28;21443;-82
2024/02/08 13:54:52;;;;;;;14.10;5.15;;;3.80;99.90;;;;;;4947096;28;20039;-77
2024/02/08 13:57:19;;;;;;;12.70;3.65;;;3.80;99.90;;;;;;4963391;28;20042;-81
2024/02/08 13:59:46;;;;;;;13.63;4.55;;;3.80;99.90;;;;;;4931278;28;20034;-79
2024/02/08 14:02:17;;;;;;;12.13;3.83;;;3.70;99.90;;;;;;4947392;28;21157;-81
2024/02/08 14:04:55;;;;;;;10.95;2.88;;;3.70;99.90;;;;;;4947810;28;20036;-83
2024/02/08 14:07:31;;;;;;;10.35;3.95;;;3.70;99.90;;;;;;4961941;28;20043;-82
2024/02/08 14:10:01;;;;;;;8.55;2.80;;;3.70;99.90;;;;;;4963987;28;20035;-78
2024/02/08 14:12:28;;;;;;;8.50;2.20;;;3.60;99.90;;;;;;4945344;28;20051;-83
2024/02/08 14:14:57;;;;;;;7.10;2.20;;;3.60;99.90;;;;;;4949891;28;20040;-83
2024/02/08 14:17:34;;;;;;;7.43;3.13;;;3.60;99.90;;;;;;4947455;28;20046;-84
2024/02/08 14:20:04;;;;;;;9.15;2.63;;;3.60;99.90;;;;;;4949800;28;20046;-81
2024/02/08 14:22:38;;;;;;;7.45;2.90;;;3.70;99.90;;;;;;4962400;28;20511;-82
2024/02/08 14:25:08;;;;;;;10.93;3.63;;;3.70;99.90;;;;;;4946250;28;20031;-79
2024/02/08 14:27:40;;;;;;;9.25;4.45;;;3.60;99.90;;;;;;4964318;28;20043;-78
2024/02/08 14:30:07;;;;;;;9.63;4.20;;;3.60;99.90;;;;;;4948045;28;20035;-80
2024/02/08 14:32:33;;;;;;;14.35;5.05;;;3.60;99.90;;;;;;4962440;28;20050;-77
2024/02/08 14:35:00;;;;;;;9.63;5.10;;;3.60;99.90;;;;;;4946622;28;20390;-79
2024/02/08 14:37:28;;;;;;;10.25;5.15;;;3.60;99.90;;;;;;4928382;28;20031;-84
2024/02/08 14:39:55;;;;;;;17.95;5.57;;;3.60;99.90;;;;;;4948169;28;20518;-81
2024/02/08 14:42:27;;;;;;;16.42;5.75;;;3.60;99.90;;;;;;4962881;28;20039;-80
2024/02/08 14:44:54;;;;;;;12.30;5.50;;;3.60;99.90;;;;;;4978529;28;20050;-79
2024/02/08 14:47:25;;;;;;;19.38;6.82;;;3.60;99.90;;;;;;4960464;28;20039;-84
2024/02/08 14:49:55;;;;;;;12.43;7.20;;;3.50;99.90;;;;;;4961792;28;20788;-80
2024/02/08 14:52:34;;;;;;;12.90;6.90;;;3.50;99.90;;;;;;4935559;28;20051;-81
2024/02/08 14:55:19;;;;;;;16.02;7.03;;;3.50;99.90;;;;;;4950346;28;20046;-78
2024/02/08 14:57:46;;;;;;;17.88;7.40;;;3.50;99.90;;;;;;4977898;28;20463;-81
2024/02/08 15:03:07;;;;;;;13.20;6.10;;;3.50;99.90;;;;;;4960073;28;20039;-83
2024/02/08 15:05:46;;;;;;;15.43;6.85;;;3.50;99.90;;;;;;4946202;28;20027;-83
2024/02/08 15:11:02;;;;;;;13.90;7.30;;;3.40;99.90;;;;;;4945711;28;20038;-78
2024/02/08 15:13:38;;;;;;;19.05;6.75;;;3.40;99.90;;;;;;4944935;28;20046;-78
2024/02/08 15:16:07;;;;;;;12.43;5.72;;;3.40;99.90;;;;;;4942580;28;20031;-84
2024/02/08 15:18:47;;;;;;;13.43;5.60;;;3.30;99.90;;;;;;4960560;28;20406;-80
2024/02/08 15:21:34;;;;;;;9.50;5.05;;;3.30;99.90;;;;;;4960196;28;20044;-81
2024/02/08 15:26:38;;;;;;;12.18;5.13;;;3.20;99.90;;;;;;4944472;28;20039;-81
2024/02/08 15:29:05;;;;;;;9.13;4.55;;;3.30;99.90;;;;;;4959143;28;20042;-85
2024/02/08 15:31:56;;;;;;;10.77;5.28;;;3.20;99.90;;;;;;4944948;28;20035;-82
2024/02/08 15:34:40;;;;;;;9.50;5.53;;;3.20;99.90;;;;;;4961281;28;20047;-80
2024/02/08 15:40:16;;;;;;;10.07;5.75;;;3.20;99.90;;;;;;4968840;28;20073;-87
2024/02/08 15:42:43;;;;;;;14.27;7.40;;;3.10;99.90;;;;;;4983802;28;20492;-86
2024/02/08 15:45:11;;;;;;;11.67;6.57;;;3.20;99.90;;;;;;4980057;28;20034;-77